sensor_id;sensor_type;location;lat;lon;timestamp;P1;durP1;ratioP1;P2;durP2;ratioP2
22205;SDS011;11272;50.104;8.754;2023-01-10T00:12:07;3.40;;;1.00;;
22205;SDS011;11272;50.104;8.754;2023-01-10T00:14:51;3.70;;;0.80;;
22205;SDS011;11272;50.104;8.754;2023-01-10T00:17:17;1.83;;;0.87;;
22205;SDS011;11272;50.104;8.754;2023-01-10T00:19:42;0.93;;;0.63;;
22205;SDS011;11272;50.104;8.754;2023-01-10T00:22:08;1.30;;;0.73;;
22205;SDS011;11272;50.104;8.754;2023-01-10T01:21:22;2.30;;;0.93;;
22205;SDS011;11272;50.104;8.754;2023-01-10T01:23:55;1.90;;;1.10;;
22205;SDS011;11272;50.104;8.754;2023-01-10T01:26:21;2.40;;;1.03;;
22205;SDS011;11272;50.104;8.754;2023-01-10T01:28:48;2.87;;;1.00;;
22205;SDS011;11272;50.104;8.754;2023-01-10T01:31:13;2.57;;;1.13;;
22205;SDS011;11272;50.104;8.754;2023-01-10T01:33:39;3.17;;;1.00;;
22205;SDS011;11272;50.104;8.754;2023-01-10T01:36:08;1.97;;;0.97;;
22205;SDS011;11272;50.104;8.754;2023-01-10T01:38:36;7.43;;;1.00;;
22205;SDS011;11272;50.104;8.754;2023-01-10T01:41:02;1.37;;;1.20;;
22205;SDS011;11272;50.104;8.754;2023-01-10T01:43:29;3.23;;;0.90;;
22205;SDS011;11272;50.104;8.754;2023-01-10T01:45:59;1.20;;;0.80;;
22205;SDS011;11272;50.104;8.754;2023-01-10T01:48:32;4.53;;;1.20;;
22205;SDS011;11272;50.104;8.754;2023-01-10T01:51:12;1.40;;;0.80;;
22205;SDS011;11272;50.104;8.754;2023-01-10T01:53:47;3.80;;;1.03;;
22205;SDS011;11272;50.104;8.754;2023-01-10T01:56:19;3.90;;;1.10;;
22205;SDS011;11272;50.104;8.754;2023-01-10T01:58:53;2.73;;;1.07;;
22205;SDS011;11272;50.104;8.754;2023-01-10T02:01:23;2.07;;;1.00;;
22205;SDS011;11272;50.104;8.754;2023-01-10T02:03:53;2.23;;;0.73;;
22205;SDS011;11272;50.104;8.754;2023-01-10T02:06:27;3.80;;;0.80;;
22205;SDS011;11272;50.104;8.754;2023-01-10T02:08:58;3.00;;;1.10;;
22205;SDS011;11272;50.104;8.754;2023-01-10T02:11:34;1.40;;;0.87;;
22205;SDS011;11272;50.104;8.754;2023-01-10T02:14:00;2.13;;;0.90;;
22205;SDS011;11272;50.104;8.754;2023-01-10T02:16:29;1.90;;;0.70;;
22205;SDS011;11272;50.104;8.754;2023-01-10T02:18:56;2.47;;;0.47;;
22205;SDS011;11272;50.104;8.754;2023-01-10T02:27:13;1.77;;;1.00;;
22205;SDS011;11272;50.104;8.754;2023-01-10T02:32:23;6.70;;;1.00;;
22205;SDS011;11272;50.104;8.754;2023-01-10T02:37:52;1.57;;;0.60;;
22205;SDS011;11272;50.104;8.754;2023-01-10T02:40:48;1.20;;;0.63;;
22205;SDS011;11272;50.104;8.754;2023-01-10T02:43:25;2.67;;;0.70;;
22205;SDS011;11272;50.104;8.754;2023-01-10T02:46:13;2.07;;;0.80;;
22205;SDS011;11272;50.104;8.754;2023-01-10T02:48:42;1.43;;;0.80;;
22205;SDS011;11272;50.104;8.754;2023-01-10T02:53:40;3.03;;;0.70;;
22205;SDS011;11272;50.104;8.754;2023-01-10T03:04:11;3.00;;;0.80;;
22205;SDS011;11272;50.104;8.754;2023-01-10T03:06:43;1.67;;;0.70;;
22205;SDS011;11272;50.104;8.754;2023-01-10T03:09:31;2.30;;;0.60;;
22205;SDS011;11272;50.104;8.754;2023-01-10T03:12:13;2.37;;;0.80;;
22205;SDS011;11272;50.104;8.754;2023-01-10T03:14:53;1.47;;;0.83;;
22205;SDS011;11272;50.104;8.754;2023-01-10T03:17:21;1.27;;;0.73;;
22205;SDS011;11272;50.104;8.754;2023-01-10T03:19:50;2.93;;;0.60;;
22205;SDS011;11272;50.104;8.754;2023-01-10T03:22:18;1.30;;;0.70;;
22205;SDS011;11272;50.104;8.754;2023-01-10T03:24:48;2.20;;;0.90;;
22205;SDS011;11272;50.104;8.754;2023-01-10T03:27:19;2.33;;;1.20;;
22205;SDS011;11272;50.104;8.754;2023-01-10T03:30:04;2.00;;;0.80;;
22205;SDS011;11272;50.104;8.754;2023-01-10T03:32:38;3.03;;;0.93;;
22205;SDS011;11272;50.104;8.754;2023-01-10T03:35:04;1.63;;;0.90;;
22205;SDS011;11272;50.104;8.754;2023-01-10T03:40:14;1.93;;;0.80;;
22205;SDS011;11272;50.104;8.754;2023-01-10T03:42:47;1.40;;;0.90;;
22205;SDS011;11272;50.104;8.754;2023-01-10T03:46:05;2.00;;;0.70;;
22205;SDS011;11272;50.104;8.754;2023-01-10T03:48:34;1.77;;;0.63;;
22205;SDS011;11272;50.104;8.754;2023-01-10T03:51:03;1.40;;;0.80;;
22205;SDS011;11272;50.104;8.754;2023-01-10T03:53:31;3.30;;;0.90;;
22205;SDS011;11272;50.104;8.754;2023-01-10T03:55:58;4.33;;;1.10;;
22205;SDS011;11272;50.104;8.754;2023-01-10T03:58:25;3.30;;;1.00;;
22205;SDS011;11272;50.104;8.754;2023-01-10T04:00:53;3.33;;;0.90;;
22205;SDS011;11272;50.104;8.754;2023-01-10T04:03:18;5.17;;;0.80;;
22205;SDS011;11272;50.104;8.754;2023-01-10T04:05:44;2.83;;;0.80;;
22205;SDS011;11272;50.104;8.754;2023-01-10T04:08:10;4.20;;;1.00;;
22205;SDS011;11272;50.104;8.754;2023-01-10T04:10:35;2.30;;;0.83;;
22205;SDS011;11272;50.104;8.754;2023-01-10T04:13:02;3.77;;;0.90;;
22205;SDS011;11272;50.104;8.754;2023-01-10T04:15:28;2.57;;;0.90;;
22205;SDS011;11272;50.104;8.754;2023-01-10T04:17:54;3.77;;;0.87;;
22205;SDS011;11272;50.104;8.754;2023-01-10T04:20:20;2.47;;;0.80;;
22205;SDS011;11272;50.104;8.754;2023-01-10T04:22:46;3.00;;;1.00;;
22205;SDS011;11272;50.104;8.754;2023-01-10T04:25:14;2.43;;;0.80;;
22205;SDS011;11272;50.104;8.754;2023-01-10T04:27:40;2.17;;;0.90;;
22205;SDS011;11272;50.104;8.754;2023-01-10T04:30:08;2.33;;;1.03;;
22205;SDS011;11272;50.104;8.754;2023-01-10T04:32:34;1.40;;;0.80;;
22205;SDS011;11272;50.104;8.754;2023-01-10T04:34:59;6.23;;;1.20;;
22205;SDS011;11272;50.104;8.754;2023-01-10T04:37:25;5.60;;;0.83;;
22205;SDS011;11272;50.104;8.754;2023-01-10T04:39:50;3.83;;;1.00;;
22205;SDS011;11272;50.104;8.754;2023-01-10T04:42:16;3.20;;;1.00;;
22205;SDS011;11272;50.104;8.754;2023-01-10T04:44:41;4.43;;;1.20;;
22205;SDS011;11272;50.104;8.754;2023-01-10T04:47:07;1.83;;;0.83;;
22205;SDS011;11272;50.104;8.754;2023-01-10T04:49:33;3.17;;;1.03;;
22205;SDS011;11272;50.104;8.754;2023-01-10T04:51:58;5.13;;;1.20;;
22205;SDS011;11272;50.104;8.754;2023-01-10T04:54:24;5.17;;;1.27;;
22205;SDS011;11272;50.104;8.754;2023-01-10T04:56:49;2.47;;;1.17;;
22205;SDS011;11272;50.104;8.754;2023-01-10T04:59:15;3.97;;;1.03;;
22205;SDS011;11272;50.104;8.754;2023-01-10T05:01:41;2.80;;;1.20;;
22205;SDS011;11272;50.104;8.754;2023-01-10T05:04:08;4.77;;;1.20;;
22205;SDS011;11272;50.104;8.754;2023-01-10T05:06:34;3.00;;;1.23;;
22205;SDS011;11272;50.104;8.754;2023-01-10T05:08:59;3.33;;;1.23;;
22205;SDS011;11272;50.104;8.754;2023-01-10T05:11:26;5.67;;;1.60;;
22205;SDS011;11272;50.104;8.754;2023-01-10T05:13:51;2.77;;;1.30;;
22205;SDS011;11272;50.104;8.754;2023-01-10T05:16:17;3.33;;;1.40;;
22205;SDS011;11272;50.104;8.754;2023-01-10T05:18:42;3.97;;;1.23;;
22205;SDS011;11272;50.104;8.754;2023-01-10T05:21:09;5.00;;;1.40;;
22205;SDS011;11272;50.104;8.754;2023-01-10T05:23:36;5.10;;;1.50;;
22205;SDS011;11272;50.104;8.754;2023-01-10T05:26:13;5.63;;;1.60;;
22205;SDS011;11272;50.104;8.754;2023-01-10T05:28:46;8.10;;;1.50;;
22205;SDS011;11272;50.104;8.754;2023-01-10T05:31:13;8.33;;;1.70;;
22205;SDS011;11272;50.104;8.754;2023-01-10T05:33:48;2.67;;;1.50;;
22205;SDS011;11272;50.104;8.754;2023-01-10T05:36:15;4.50;;;1.60;;
22205;SDS011;11272;50.104;8.754;2023-01-10T05:38:42;5.37;;;1.63;;
22205;SDS011;11272;50.104;8.754;2023-01-10T05:41:08;5.37;;;1.83;;
22205;SDS011;11272;50.104;8.754;2023-01-10T05:43:34;3.03;;;1.37;;
22205;SDS011;11272;50.104;8.754;2023-01-10T05:45:59;9.23;;;1.80;;
22205;SDS011;11272;50.104;8.754;2023-01-10T05:48:25;5.13;;;1.70;;
22205;SDS011;11272;50.104;8.754;2023-01-10T05:50:51;3.77;;;1.73;;
22205;SDS011;11272;50.104;8.754;2023-01-10T05:53:17;7.03;;;1.73;;
22205;SDS011;11272;50.104;8.754;2023-01-10T05:55:43;6.57;;;1.93;;
22205;SDS011;11272;50.104;8.754;2023-01-10T05:58:16;8.30;;;1.67;;
22205;SDS011;11272;50.104;8.754;2023-01-10T06:00:41;13.23;;;2.30;;
22205;SDS011;11272;50.104;8.754;2023-01-10T06:03:07;7.93;;;1.73;;
22205;SDS011;11272;50.104;8.754;2023-01-10T06:05:32;6.10;;;1.80;;
22205;SDS011;11272;50.104;8.754;2023-01-10T06:07:58;5.23;;;1.63;;
22205;SDS011;11272;50.104;8.754;2023-01-10T06:10:24;7.57;;;2.20;;
22205;SDS011;11272;50.104;8.754;2023-01-10T06:12:49;3.63;;;1.60;;
22205;SDS011;11272;50.104;8.754;2023-01-10T06:15:15;11.30;;;2.23;;
22205;SDS011;11272;50.104;8.754;2023-01-10T06:17:41;7.80;;;2.10;;
22205;SDS011;11272;50.104;8.754;2023-01-10T06:20:10;6.10;;;2.13;;
22205;SDS011;11272;50.104;8.754;2023-01-10T06:22:41;8.77;;;2.00;;
22205;SDS011;11272;50.104;8.754;2023-01-10T06:25:11;5.47;;;1.90;;
22205;SDS011;11272;50.104;8.754;2023-01-10T06:27:38;5.10;;;1.77;;
22205;SDS011;11272;50.104;8.754;2023-01-10T06:30:05;5.93;;;2.10;;
22205;SDS011;11272;50.104;8.754;2023-01-10T06:32:32;11.30;;;2.23;;
22205;SDS011;11272;50.104;8.754;2023-01-10T06:34:58;5.93;;;2.07;;
22205;SDS011;11272;50.104;8.754;2023-01-10T06:37:24;12.97;;;3.27;;
22205;SDS011;11272;50.104;8.754;2023-01-10T06:39:49;9.37;;;2.63;;
22205;SDS011;11272;50.104;8.754;2023-01-10T06:42:15;7.80;;;2.77;;
22205;SDS011;11272;50.104;8.754;2023-01-10T06:44:41;8.37;;;2.37;;
22205;SDS011;11272;50.104;8.754;2023-01-10T06:47:07;9.43;;;2.23;;
22205;SDS011;11272;50.104;8.754;2023-01-10T06:49:33;8.83;;;2.20;;
22205;SDS011;11272;50.104;8.754;2023-01-10T06:51:58;5.70;;;2.70;;
22205;SDS011;11272;50.104;8.754;2023-01-10T06:54:24;4.30;;;2.47;;
22205;SDS011;11272;50.104;8.754;2023-01-10T06:56:49;9.67;;;3.07;;
22205;SDS011;11272;50.104;8.754;2023-01-10T06:59:15;11.43;;;2.53;;
22205;SDS011;11272;50.104;8.754;2023-01-10T07:01:41;8.47;;;2.00;;
22205;SDS011;11272;50.104;8.754;2023-01-10T07:04:06;6.60;;;1.70;;
22205;SDS011;11272;50.104;8.754;2023-01-10T07:06:35;6.87;;;2.00;;
22205;SDS011;11272;50.104;8.754;2023-01-10T07:09:04;7.43;;;1.77;;
22205;SDS011;11272;50.104;8.754;2023-01-10T07:11:31;8.40;;;2.03;;
22205;SDS011;11272;50.104;8.754;2023-01-10T07:13:59;7.53;;;2.07;;
22205;SDS011;11272;50.104;8.754;2023-01-10T07:16:25;4.20;;;1.80;;
22205;SDS011;11272;50.104;8.754;2023-01-10T07:18:51;12.00;;;2.73;;
22205;SDS011;11272;50.104;8.754;2023-01-10T07:21:16;5.90;;;1.93;;
22205;SDS011;11272;50.104;8.754;2023-01-10T07:23:50;10.53;;;2.37;;
22205;SDS011;11272;50.104;8.754;2023-01-10T07:26:17;9.27;;;2.10;;
22205;SDS011;11272;50.104;8.754;2023-01-10T07:28:44;7.10;;;2.03;;
22205;SDS011;11272;50.104;8.754;2023-01-10T07:31:15;6.47;;;1.80;;
22205;SDS011;11272;50.104;8.754;2023-01-10T07:33:42;7.13;;;1.80;;
22205;SDS011;11272;50.104;8.754;2023-01-10T07:36:08;7.47;;;1.40;;
22205;SDS011;11272;50.104;8.754;2023-01-10T07:38:34;6.70;;;1.80;;
22205;SDS011;11272;50.104;8.754;2023-01-10T07:41:03;5.07;;;1.90;;
22205;SDS011;11272;50.104;8.754;2023-01-10T07:43:29;7.83;;;1.93;;
22205;SDS011;11272;50.104;8.754;2023-01-10T07:45:58;8.00;;;1.90;;
22205;SDS011;11272;50.104;8.754;2023-01-10T07:48:25;7.73;;;1.90;;
22205;SDS011;11272;50.104;8.754;2023-01-10T07:50:55;10.27;;;1.90;;
22205;SDS011;11272;50.104;8.754;2023-01-10T07:53:25;9.30;;;1.90;;
22205;SDS011;11272;50.104;8.754;2023-01-10T07:55:51;6.93;;;1.77;;
22205;SDS011;11272;50.104;8.754;2023-01-10T07:58:17;10.10;;;1.57;;
22205;SDS011;11272;50.104;8.754;2023-01-10T08:00:43;9.90;;;2.33;;
22205;SDS011;11272;50.104;8.754;2023-01-10T08:03:10;7.47;;;1.67;;
22205;SDS011;11272;50.104;8.754;2023-01-10T08:05:37;7.83;;;1.73;;
22205;SDS011;11272;50.104;8.754;2023-01-10T08:08:07;6.93;;;1.90;;
22205;SDS011;11272;50.104;8.754;2023-01-10T08:10:34;3.37;;;1.57;;
22205;SDS011;11272;50.104;8.754;2023-01-10T08:13:01;11.87;;;1.93;;
22205;SDS011;11272;50.104;8.754;2023-01-10T08:15:28;5.40;;;1.40;;
22205;SDS011;11272;50.104;8.754;2023-01-10T08:17:53;6.83;;;1.40;;
22205;SDS011;11272;50.104;8.754;2023-01-10T08:20:19;9.00;;;1.57;;
22205;SDS011;11272;50.104;8.754;2023-01-10T08:22:45;4.77;;;1.40;;
22205;SDS011;11272;50.104;8.754;2023-01-10T08:25:11;6.57;;;1.50;;
22205;SDS011;11272;50.104;8.754;2023-01-10T08:27:36;6.60;;;1.60;;
22205;SDS011;11272;50.104;8.754;2023-01-10T08:30:03;8.37;;;1.70;;
22205;SDS011;11272;50.104;8.754;2023-01-10T08:32:30;11.23;;;1.77;;
22205;SDS011;11272;50.104;8.754;2023-01-10T08:34:58;4.17;;;1.20;;
22205;SDS011;11272;50.104;8.754;2023-01-10T08:37:28;7.50;;;1.70;;
22205;SDS011;11272;50.104;8.754;2023-01-10T08:39:56;5.33;;;1.60;;
22205;SDS011;11272;50.104;8.754;2023-01-10T08:42:22;5.17;;;1.30;;
22205;SDS011;11272;50.104;8.754;2023-01-10T08:44:48;9.47;;;1.73;;
22205;SDS011;11272;50.104;8.754;2023-01-10T08:47:13;8.07;;;1.50;;
22205;SDS011;11272;50.104;8.754;2023-01-10T08:49:40;6.93;;;1.33;;
22205;SDS011;11272;50.104;8.754;2023-01-10T08:52:09;11.87;;;1.73;;
22205;SDS011;11272;50.104;8.754;2023-01-10T08:54:35;8.43;;;1.60;;
22205;SDS011;11272;50.104;8.754;2023-01-10T08:57:06;7.87;;;1.43;;
22205;SDS011;11272;50.104;8.754;2023-01-10T08:59:32;7.73;;;1.70;;
22205;SDS011;11272;50.104;8.754;2023-01-10T09:02:00;8.47;;;1.60;;
22205;SDS011;11272;50.104;8.754;2023-01-10T09:04:28;11.53;;;1.83;;
22205;SDS011;11272;50.104;8.754;2023-01-10T09:06:56;8.57;;;1.87;;
22205;SDS011;11272;50.104;8.754;2023-01-10T09:09:22;7.77;;;1.60;;
22205;SDS011;11272;50.104;8.754;2023-01-10T09:11:48;8.70;;;2.00;;
22205;SDS011;11272;50.104;8.754;2023-01-10T09:14:14;8.17;;;1.70;;
22205;SDS011;11272;50.104;8.754;2023-01-10T09:16:40;10.77;;;2.43;;
22205;SDS011;11272;50.104;8.754;2023-01-10T09:19:07;9.23;;;1.97;;
22205;SDS011;11272;50.104;8.754;2023-01-10T09:21:34;8.90;;;2.03;;
22205;SDS011;11272;50.104;8.754;2023-01-10T09:23:59;9.90;;;2.77;;
22205;SDS011;11272;50.104;8.754;2023-01-10T09:26:26;8.20;;;2.10;;
22205;SDS011;11272;50.104;8.754;2023-01-10T09:28:51;7.57;;;1.97;;
22205;SDS011;11272;50.104;8.754;2023-01-10T09:31:18;15.67;;;2.10;;
22205;SDS011;11272;50.104;8.754;2023-01-10T09:33:43;7.83;;;1.60;;
22205;SDS011;11272;50.104;8.754;2023-01-10T09:36:11;10.67;;;1.90;;
22205;SDS011;11272;50.104;8.754;2023-01-10T09:38:38;4.63;;;1.73;;
22205;SDS011;11272;50.104;8.754;2023-01-10T09:43:38;8.70;;;1.70;;
22205;SDS011;11272;50.104;8.754;2023-01-10T09:46:19;5.03;;;1.20;;
22205;SDS011;11272;50.104;8.754;2023-01-10T09:51:40;14.30;;;2.03;;
22205;SDS011;11272;50.104;8.754;2023-01-10T09:57:00;6.47;;;1.75;;
22205;SDS011;11272;50.104;8.754;2023-01-10T09:59:36;7.63;;;2.00;;
22205;SDS011;11272;50.104;8.754;2023-01-10T10:02:16;6.47;;;1.40;;
22205;SDS011;11272;50.104;8.754;2023-01-10T10:04:54;7.13;;;1.60;;
22205;SDS011;11272;50.104;8.754;2023-01-10T10:07:28;9.10;;;1.97;;
22205;SDS011;11272;50.104;8.754;2023-01-10T10:09:54;7.37;;;1.50;;
22205;SDS011;11272;50.104;8.754;2023-01-10T10:12:24;8.47;;;1.70;;
22205;SDS011;11272;50.104;8.754;2023-01-10T10:17:54;5.33;;;1.40;;
22205;SDS011;11272;50.104;8.754;2023-01-10T10:20:34;5.77;;;1.27;;
22205;SDS011;11272;50.104;8.754;2023-01-10T10:23:09;5.77;;;1.60;;
22205;SDS011;11272;50.104;8.754;2023-01-10T10:25:59;8.23;;;1.60;;
22205;SDS011;11272;50.104;8.754;2023-01-10T10:34:48;5.40;;;1.50;;
22205;SDS011;11272;50.104;8.754;2023-01-10T10:37:29;8.60;;;1.50;;
22205;SDS011;11272;50.104;8.754;2023-01-10T10:40:01;7.17;;;1.20;;
22205;SDS011;11272;50.104;8.754;2023-01-10T10:42:47;6.03;;;1.87;;
22205;SDS011;11272;50.104;8.754;2023-01-10T10:48:15;7.33;;;1.70;;
22205;SDS011;11272;50.104;8.754;2023-01-10T10:53:26;4.00;;;1.27;;
22205;SDS011;11272;50.104;8.754;2023-01-10T10:55:53;8.80;;;1.87;;
22205;SDS011;11272;50.104;8.754;2023-01-10T10:58:21;10.33;;;1.63;;
22205;SDS011;11272;50.104;8.754;2023-01-10T11:00:47;9.87;;;1.00;;
22205;SDS011;11272;50.104;8.754;2023-01-10T11:03:35;8.10;;;1.60;;
22205;SDS011;11272;50.104;8.754;2023-01-10T11:06:06;6.07;;;1.60;;
22205;SDS011;11272;50.104;8.754;2023-01-10T11:08:35;10.23;;;2.00;;
22205;SDS011;11272;50.104;8.754;2023-01-10T11:11:31;8.67;;;1.50;;
22205;SDS011;11272;50.104;8.754;2023-01-10T11:13:59;9.27;;;1.70;;
22205;SDS011;11272;50.104;8.754;2023-01-10T11:16:27;7.33;;;1.83;;
22205;SDS011;11272;50.104;8.754;2023-01-10T11:19:13;7.97;;;2.20;;
22205;SDS011;11272;50.104;8.754;2023-01-10T11:22:00;4.90;;;1.40;;
22205;SDS011;11272;50.104;8.754;2023-01-10T11:24:37;7.33;;;1.83;;
22205;SDS011;11272;50.104;8.754;2023-01-10T11:27:18;7.87;;;1.43;;
22205;SDS011;11272;50.104;8.754;2023-01-10T11:29:59;8.90;;;1.93;;
22205;SDS011;11272;50.104;8.754;2023-01-10T11:32:32;5.57;;;1.57;;
22205;SDS011;11272;50.104;8.754;2023-01-10T11:35:02;7.77;;;1.50;;
22205;SDS011;11272;50.104;8.754;2023-01-10T11:37:34;7.87;;;2.20;;
22205;SDS011;11272;50.104;8.754;2023-01-10T11:42:48;4.47;;;1.40;;
22205;SDS011;11272;50.104;8.754;2023-01-10T11:47:45;7.93;;;1.70;;
22205;SDS011;11272;50.104;8.754;2023-01-10T11:50:14;6.90;;;1.53;;
22205;SDS011;11272;50.104;8.754;2023-01-10T11:52:44;10.57;;;1.90;;
22205;SDS011;11272;50.104;8.754;2023-01-10T11:55:16;9.63;;;1.67;;
22205;SDS011;11272;50.104;8.754;2023-01-10T11:57:44;8.23;;;1.60;;
22205;SDS011;11272;50.104;8.754;2023-01-10T12:00:10;9.20;;;1.73;;
22205;SDS011;11272;50.104;8.754;2023-01-10T12:02:40;6.93;;;1.83;;
22205;SDS011;11272;50.104;8.754;2023-01-10T12:05:16;11.00;;;1.70;;
22205;SDS011;11272;50.104;8.754;2023-01-10T12:08:00;8.43;;;1.97;;
22205;SDS011;11272;50.104;8.754;2023-01-10T12:10:32;10.37;;;1.57;;
22205;SDS011;11272;50.104;8.754;2023-01-10T12:13:01;12.83;;;2.13;;
22205;SDS011;11272;50.104;8.754;2023-01-10T12:15:37;8.17;;;2.20;;
22205;SDS011;11272;50.104;8.754;2023-01-10T12:18:04;12.90;;;1.70;;
22205;SDS011;11272;50.104;8.754;2023-01-10T12:20:42;10.50;;;1.97;;
22205;SDS011;11272;50.104;8.754;2023-01-10T12:23:18;10.53;;;2.10;;
22205;SDS011;11272;50.104;8.754;2023-01-10T12:25:46;6.97;;;1.87;;
22205;SDS011;11272;50.104;8.754;2023-01-10T12:28:15;7.87;;;2.30;;
22205;SDS011;11272;50.104;8.754;2023-01-10T12:30:44;9.03;;;1.87;;
22205;SDS011;11272;50.104;8.754;2023-01-10T12:33:21;11.33;;;2.03;;
22205;SDS011;11272;50.104;8.754;2023-01-10T12:35:55;9.63;;;1.93;;
22205;SDS011;11272;50.104;8.754;2023-01-10T12:38:55;10.60;;;1.83;;
22205;SDS011;11272;50.104;8.754;2023-01-10T12:41:34;9.27;;;2.00;;
22205;SDS011;11272;50.104;8.754;2023-01-10T12:44:40;9.00;;;1.53;;
22205;SDS011;11272;50.104;8.754;2023-01-10T12:47:15;8.47;;;1.77;;
22205;SDS011;11272;50.104;8.754;2023-01-10T12:49:48;10.47;;;1.93;;
22205;SDS011;11272;50.104;8.754;2023-01-10T12:52:26;8.53;;;1.70;;
22205;SDS011;11272;50.104;8.754;2023-01-10T12:55:13;7.43;;;1.50;;
22205;SDS011;11272;50.104;8.754;2023-01-10T12:57:43;8.93;;;2.07;;
22205;SDS011;11272;50.104;8.754;2023-01-10T13:00:55;13.20;;;2.03;;
22205;SDS011;11272;50.104;8.754;2023-01-10T13:03:08;10.73;;;2.10;;
22205;SDS011;11272;50.104;8.754;2023-01-10T13:05:36;11.00;;;2.43;;
22205;SDS011;11272;50.104;8.754;2023-01-10T13:08:03;9.70;;;1.70;;
22205;SDS011;11272;50.104;8.754;2023-01-10T13:10:38;11.60;;;2.40;;
22205;SDS011;11272;50.104;8.754;2023-01-10T13:13:12;7.20;;;1.50;;
22205;SDS011;11272;50.104;8.754;2023-01-10T13:15:51;13.10;;;2.50;;
22205;SDS011;11272;50.104;8.754;2023-01-10T13:21:04;11.37;;;2.03;;
22205;SDS011;11272;50.104;8.754;2023-01-10T13:23:46;5.83;;;1.90;;
22205;SDS011;11272;50.104;8.754;2023-01-10T13:26:14;7.23;;;2.13;;
22205;SDS011;11272;50.104;8.754;2023-01-10T13:28:44;5.67;;;1.60;;
22205;SDS011;11272;50.104;8.754;2023-01-10T13:31:22;11.03;;;2.43;;
22205;SDS011;11272;50.104;8.754;2023-01-10T13:33:52;9.13;;;2.10;;
22205;SDS011;11272;50.104;8.754;2023-01-10T13:36:37;8.60;;;2.20;;
22205;SDS011;11272;50.104;8.754;2023-01-10T13:39:05;11.83;;;2.00;;
22205;SDS011;11272;50.104;8.754;2023-01-10T13:45:13;17.20;;;2.50;;
22205;SDS011;11272;50.104;8.754;2023-01-10T13:58:38;11.13;;;1.90;;
22205;SDS011;11272;50.104;8.754;2023-01-10T14:06:55;13.73;;;2.07;;
22205;SDS011;11272;50.104;8.754;2023-01-10T14:11:58;8.47;;;1.87;;
22205;SDS011;11272;50.104;8.754;2023-01-10T14:14:31;15.10;;;2.17;;
22205;SDS011;11272;50.104;8.754;2023-01-10T14:17:18;10.53;;;2.10;;
22205;SDS011;11272;50.104;8.754;2023-01-10T14:19:48;7.97;;;1.73;;
22205;SDS011;11272;50.104;8.754;2023-01-10T14:22:26;11.43;;;2.20;;
22205;SDS011;11272;50.104;8.754;2023-01-10T14:24:55;10.80;;;1.80;;
22205;SDS011;11272;50.104;8.754;2023-01-10T14:27:23;12.77;;;1.80;;
22205;SDS011;11272;50.104;8.754;2023-01-10T14:29:51;4.67;;;0.97;;
22205;SDS011;11272;50.104;8.754;2023-01-10T14:32:31;12.43;;;2.00;;
22205;SDS011;11272;50.104;8.754;2023-01-10T14:35:18;10.77;;;1.87;;
22205;SDS011;11272;50.104;8.754;2023-01-10T14:37:55;2.23;;;0.60;;
22205;SDS011;11272;50.104;8.754;2023-01-10T14:43:12;7.53;;;1.60;;
22205;SDS011;11272;50.104;8.754;2023-01-10T14:48:33;10.20;;;1.80;;
22205;SDS011;11272;50.104;8.754;2023-01-10T14:51:09;6.73;;;1.83;;
22205;SDS011;11272;50.104;8.754;2023-01-10T14:53:41;9.53;;;2.10;;
22205;SDS011;11272;50.104;8.754;2023-01-10T15:01:53;10.33;;;2.07;;
22205;SDS011;11272;50.104;8.754;2023-01-10T15:04:37;8.70;;;1.50;;
22205;SDS011;11272;50.104;8.754;2023-01-10T15:07:14;13.83;;;2.30;;
22205;SDS011;11272;50.104;8.754;2023-01-10T15:09:46;0.97;;;0.37;;
22205;SDS011;11272;50.104;8.754;2023-01-10T15:12:13;8.77;;;1.30;;
22205;SDS011;11272;50.104;8.754;2023-01-10T15:14:40;10.13;;;1.63;;
22205;SDS011;11272;50.104;8.754;2023-01-10T15:17:06;7.87;;;2.17;;
22205;SDS011;11272;50.104;8.754;2023-01-10T15:19:41;11.27;;;1.77;;
22205;SDS011;11272;50.104;8.754;2023-01-10T15:22:45;17.33;;;2.37;;
22205;SDS011;11272;50.104;8.754;2023-01-10T15:27:43;12.97;;;2.40;;
22205;SDS011;11272;50.104;8.754;2023-01-10T15:30:10;12.23;;;2.13;;
22205;SDS011;11272;50.104;8.754;2023-01-10T15:32:42;10.17;;;2.43;;
22205;SDS011;11272;50.104;8.754;2023-01-10T15:35:09;13.03;;;2.13;;
22205;SDS011;11272;50.104;8.754;2023-01-10T15:37:38;10.53;;;1.77;;
22205;SDS011;11272;50.104;8.754;2023-01-10T15:40:06;13.53;;;1.87;;
22205;SDS011;11272;50.104;8.754;2023-01-10T15:45:42;11.20;;;1.97;;
22205;SDS011;11272;50.104;8.754;2023-01-10T15:51:15;10.60;;;1.87;;
22205;SDS011;11272;50.104;8.754;2023-01-10T15:54:04;3.13;;;1.07;;
22205;SDS011;11272;50.104;8.754;2023-01-10T15:56:53;18.00;;;2.60;;
22205;SDS011;11272;50.104;8.754;2023-01-10T16:04:35;11.77;;;2.03;;
22205;SDS011;11272;50.104;8.754;2023-01-10T16:07:05;8.13;;;2.17;;
22205;SDS011;11272;50.104;8.754;2023-01-10T16:09:36;10.43;;;2.10;;
22205;SDS011;11272;50.104;8.754;2023-01-10T16:12:03;11.33;;;2.47;;
22205;SDS011;11272;50.104;8.754;2023-01-10T16:14:48;7.33;;;1.57;;
22205;SDS011;11272;50.104;8.754;2023-01-10T16:17:13;14.00;;;2.03;;
22205;SDS011;11272;50.104;8.754;2023-01-10T16:19:39;9.03;;;1.90;;
22205;SDS011;11272;50.104;8.754;2023-01-10T16:22:04;12.03;;;2.40;;
22205;SDS011;11272;50.104;8.754;2023-01-10T16:24:31;11.03;;;2.13;;
22205;SDS011;11272;50.104;8.754;2023-01-10T16:26:59;11.93;;;1.87;;
22205;SDS011;11272;50.104;8.754;2023-01-10T16:29:30;7.73;;;1.57;;
22205;SDS011;11272;50.104;8.754;2023-01-10T16:31:56;11.70;;;2.27;;
22205;SDS011;11272;50.104;8.754;2023-01-10T16:34:22;7.47;;;2.40;;
22205;SDS011;11272;50.104;8.754;2023-01-10T16:36:50;11.77;;;2.43;;
22205;SDS011;11272;50.104;8.754;2023-01-10T16:39:16;8.43;;;1.63;;
22205;SDS011;11272;50.104;8.754;2023-01-10T16:41:44;14.80;;;2.07;;
22205;SDS011;11272;50.104;8.754;2023-01-10T16:44:29;10.67;;;1.97;;
22205;SDS011;11272;50.104;8.754;2023-01-10T16:46:56;9.97;;;1.90;;
22205;SDS011;11272;50.104;8.754;2023-01-10T16:49:22;6.53;;;0.80;;
22205;SDS011;11272;50.104;8.754;2023-01-10T16:51:48;13.23;;;2.17;;
22205;SDS011;11272;50.104;8.754;2023-01-10T16:54:14;6.60;;;2.03;;
22205;SDS011;11272;50.104;8.754;2023-01-10T16:56:44;5.80;;;2.13;;
22205;SDS011;11272;50.104;8.754;2023-01-10T16:59:14;5.30;;;1.40;;
22205;SDS011;11272;50.104;8.754;2023-01-10T17:01:43;15.87;;;2.47;;
22205;SDS011;11272;50.104;8.754;2023-01-10T17:04:11;9.60;;;2.43;;
22205;SDS011;11272;50.104;8.754;2023-01-10T17:06:43;8.67;;;1.77;;
22205;SDS011;11272;50.104;8.754;2023-01-10T17:09:12;8.40;;;1.43;;
22205;SDS011;11272;50.104;8.754;2023-01-10T17:11:44;7.93;;;1.73;;
22205;SDS011;11272;50.104;8.754;2023-01-10T17:14:18;6.83;;;1.63;;
22205;SDS011;11272;50.104;8.754;2023-01-10T17:16:44;13.27;;;2.80;;
22205;SDS011;11272;50.104;8.754;2023-01-10T17:19:10;7.00;;;1.83;;
22205;SDS011;11272;50.104;8.754;2023-01-10T17:21:36;3.47;;;1.50;;
22205;SDS011;11272;50.104;8.754;2023-01-10T17:24:01;9.20;;;2.17;;
22205;SDS011;11272;50.104;8.754;2023-01-10T17:26:27;7.20;;;2.27;;
22205;SDS011;11272;50.104;8.754;2023-01-10T17:28:52;11.30;;;1.97;;
22205;SDS011;11272;50.104;8.754;2023-01-10T17:31:18;7.87;;;1.77;;
22205;SDS011;11272;50.104;8.754;2023-01-10T17:33:44;7.67;;;1.70;;
22205;SDS011;11272;50.104;8.754;2023-01-10T17:36:10;14.03;;;1.83;;
22205;SDS011;11272;50.104;8.754;2023-01-10T17:38:36;4.27;;;1.33;;
22205;SDS011;11272;50.104;8.754;2023-01-10T17:41:27;9.53;;;2.00;;
22205;SDS011;11272;50.104;8.754;2023-01-10T17:44:19;9.73;;;1.77;;
22205;SDS011;11272;50.104;8.754;2023-01-10T17:46:44;7.87;;;1.70;;
22205;SDS011;11272;50.104;8.754;2023-01-10T17:49:10;5.10;;;1.43;;
22205;SDS011;11272;50.104;8.754;2023-01-10T17:51:36;14.13;;;2.57;;
22205;SDS011;11272;50.104;8.754;2023-01-10T17:54:02;4.23;;;1.60;;
22205;SDS011;11272;50.104;8.754;2023-01-10T17:56:28;7.50;;;1.80;;